Time;durP1;ratioP1;P1;durP2;ratioP2;P2;SDS_P1;SDS_P2;PMS_P1;PMS_P2;Temp;Humidity;BMP_temperature;BMP_pressure;BME280_temperature;BME280_humidity;BME280_pressure;Samples;Min_cycle;Max_cycle;Signal;HPM_P1;HPM_P2
2021/05/07 00:01:13;;;;;;;4.93;3.60;;;7.20;73.90;;;;;;5034310;28;20080;-80
2021/05/07 00:03:40;;;;;;;4.50;3.50;;;7.20;73.80;;;;;;5036598;28;20049;-79
2021/05/07 00:06:07;;;;;;;5.95;3.88;;;7.20;73.90;;;;;;5053618;28;20037;-79
2021/05/07 00:08:34;;;;;;;4.18;3.50;;;7.20;73.90;;;;;;5036680;28;20053;-79
2021/05/07 00:11:01;;;;;;;3.88;3.28;;;7.20;74.20;;;;;;5037042;28;20041;-80
2021/05/07 00:13:27;;;;;;;6.07;3.65;;;7.10;74.20;;;;;;5036477;28;20415;-79
2021/05/07 00:15:53;;;;;;;8.73;4.20;;;7.10;74.40;;;;;;5038025;28;20048;-79
2021/05/07 00:18:19;;;;;;;10.20;4.28;;;7.10;74.40;;;;;;5052993;28;20041;-80
2021/05/07 00:20:44;;;;;;;5.90;4.13;;;7.10;74.40;;;;;;5036795;28;20113;-79
2021/05/07 00:23:10;;;;;;;5.75;3.97;;;7.10;74.40;;;;;;5052994;28;20152;-83
2021/05/07 00:25:36;;;;;;;5.00;3.53;;;7.10;74.40;;;;;;5037202;28;20095;-79
2021/05/07 00:28:06;;;;;;;5.32;3.40;;;7.10;74.40;;;;;;5036327;28;20049;-81
2021/05/07 00:30:32;;;;;;;6.45;3.50;;;7.10;74.40;;;;;;5052457;28;20045;-78
2021/05/07 00:32:58;;;;;;;4.30;3.13;;;7.10;74.40;;;;;;5053036;28;20065;-79
2021/05/07 00:35:23;;;;;;;4.35;3.70;;;7.10;74.50;;;;;;5036333;28;20138;-79
2021/05/07 00:37:49;;;;;;;4.20;3.30;;;7.10;74.40;;;;;;5036532;28;20077;-79
2021/05/07 00:40:15;;;;;;;5.10;3.80;;;7.00;74.40;;;;;;5052696;28;20068;-87
2021/05/07 00:42:42;;;;;;;5.32;3.47;;;7.10;74.60;;;;;;5052632;28;20067;-79
2021/05/07 00:45:10;;;;;;;6.13;3.50;;;7.00;74.60;;;;;;5036138;28;20041;-78
2021/05/07 00:47:47;;;;;;;6.55;4.03;;;7.00;74.70;;;;;;5051951;28;20049;-78
2021/05/07 00:50:13;;;;;;;4.15;3.28;;;7.00;74.60;;;;;;5036173;28;20128;-79
2021/05/07 00:52:39;;;;;;;4.93;4.18;;;6.90;74.60;;;;;;5035765;28;20073;-80
2021/05/07 00:55:05;;;;;;;3.90;3.40;;;6.90;74.60;;;;;;5052696;28;20378;-79
2021/05/07 00:57:34;;;;;;;5.20;3.63;;;6.90;74.60;;;;;;5035896;28;20053;-79
2021/05/07 01:00:00;;;;;;;5.20;3.33;;;6.90;74.60;;;;;;5036356;28;20103;-80
2021/05/07 01:02:25;;;;;;;4.90;3.17;;;6.80;74.60;;;;;;5052402;28;20428;-78
2021/05/07 01:04:52;;;;;;;7.05;3.60;;;6.80;74.60;;;;;;5036003;28;20125;-79
2021/05/07 01:07:18;;;;;;;4.65;3.13;;;6.80;74.60;;;;;;5035770;28;20104;-84
2021/05/07 01:09:44;;;;;;;4.28;3.20;;;6.70;74.60;;;;;;5052837;28;20053;-78
2021/05/07 01:12:10;;;;;;;5.05;3.28;;;6.70;74.60;;;;;;5035994;28;20042;-80
2021/05/07 01:14:36;;;;;;;5.20;3.17;;;6.70;74.60;;;;;;5051898;28;20069;-80
2021/05/07 01:17:03;;;;;;;3.80;2.78;;;6.60;74.70;;;;;;5051754;28;20398;-79
2021/05/07 01:19:28;;;;;;;4.13;2.97;;;6.60;75.60;;;;;;5051870;28;20049;-79
2021/05/07 01:21:55;;;;;;;5.50;3.30;;;6.70;74.90;;;;;;5019017;28;20037;-80
2021/05/07 01:24:25;;;;;;;4.65;3.05;;;6.60;75.00;;;;;;5051671;28;20042;-85
2021/05/07 01:26:51;;;;;;;4.80;3.33;;;6.60;75.10;;;;;;5052196;28;20045;-80
2021/05/07 01:29:17;;;;;;;4.32;3.20;;;6.60;75.00;;;;;;5035739;28;20061;-80
2021/05/07 01:31:45;;;;;;;5.32;4.18;;;6.60;75.10;;;;;;5051261;28;20041;-79
2021/05/07 01:34:11;;;;;;;5.55;3.70;;;6.50;75.00;;;;;;5035553;28;20129;-79
2021/05/07 01:36:37;;;;;;;4.90;3.05;;;6.50;75.10;;;;;;5051741;28;20107;-79
2021/05/07 01:39:03;;;;;;;4.47;3.35;;;6.50;75.10;;;;;;5036006;28;20041;-79
2021/05/07 01:41:30;;;;;;;4.43;3.35;;;6.50;75.20;;;;;;5054887;28;20048;-80
2021/05/07 01:43:59;;;;;;;5.68;3.00;;;6.50;75.10;;;;;;5056058;28;20099;-80
2021/05/07 01:46:24;;;;;;;4.60;2.90;;;6.40;75.20;;;;;;5055439;28;20041;-86
2021/05/07 01:48:50;;;;;;;4.95;3.13;;;6.40;75.20;;;;;;5055677;28;20390;-79
2021/05/07 01:51:18;;;;;;;4.90;3.33;;;6.40;75.20;;;;;;5055391;28;20052;-79
2021/05/07 01:53:44;;;;;;;4.70;3.03;;;6.40;75.20;;;;;;5053246;28;20398;-79
2021/05/07 01:56:10;;;;;;;3.53;2.88;;;6.30;75.30;;;;;;5035840;28;20061;-79
2021/05/07 01:58:35;;;;;;;4.13;2.85;;;6.30;75.40;;;;;;5016956;28;20061;-80
2021/05/07 02:01:01;;;;;;;5.85;3.35;;;6.30;75.30;;;;;;5034169;28;20061;-79
2021/05/07 02:03:27;;;;;;;5.00;3.60;;;6.30;75.30;;;;;;5035247;28;20439;-84
2021/05/07 02:05:53;;;;;;;4.45;2.85;;;6.30;75.30;;;;;;5033931;28;20041;-79
2021/05/07 02:08:19;;;;;;;6.72;3.33;;;6.20;75.40;;;;;;5049913;28;20445;-79
2021/05/07 02:10:45;;;;;;;4.18;3.40;;;6.20;75.40;;;;;;5017001;28;20064;-80
2021/05/07 02:13:11;;;;;;;4.68;3.50;;;6.20;75.40;;;;;;5017774;28;20091;-78
2021/05/07 02:15:37;;;;;;;5.30;3.40;;;6.20;75.50;;;;;;5033983;28;20041;-80
2021/05/07 02:18:06;;;;;;;4.70;3.25;;;6.20;75.40;;;;;;5017849;28;20049;-79
2021/05/07 02:20:32;;;;;;;5.38;3.60;;;6.10;75.40;;;;;;5033801;28;20111;-80
2021/05/07 02:22:58;;;;;;;4.35;3.45;;;6.20;75.40;;;;;;5035394;28;20486;-79
2021/05/07 02:25:24;;;;;;;5.20;3.33;;;6.10;75.40;;;;;;5017902;28;20052;-80
2021/05/07 02:27:51;;;;;;;4.55;3.40;;;6.10;75.40;;;;;;5017529;28;20041;-78
2021/05/07 02:30:21;;;;;;;6.40;3.17;;;6.10;75.50;;;;;;5017348;28;20053;-79
2021/05/07 02:32:46;;;;;;;4.47;3.45;;;6.00;75.50;;;;;;5017575;28;20045;-78
2021/05/07 02:35:12;;;;;;;3.97;3.33;;;6.10;75.60;;;;;;5034060;28;20053;-78
2021/05/07 02:37:38;;;;;;;4.30;3.25;;;6.00;75.50;;;;;;5016705;28;20537;-79
2021/05/07 02:40:05;;;;;;;4.43;3.60;;;6.00;75.60;;;;;;5017790;28;20113;-78
2021/05/07 02:42:31;;;;;;;5.43;4.13;;;6.00;75.80;;;;;;5017529;28;20103;-85
2021/05/07 02:45:03;;;;;;;4.53;3.47;;;6.00;75.80;;;;;;5034024;28;20106;-79
2021/05/07 02:47:33;;;;;;;6.40;4.22;;;6.00;75.90;;;;;;5017472;28;20061;-80
2021/05/07 02:49:59;;;;;;;4.57;3.75;;;6.10;75.90;;;;;;5034370;28;20053;-76
2021/05/07 02:52:25;;;;;;;4.70;4.10;;;6.00;75.80;;;;;;5001286;28;20504;-76
2021/05/07 02:54:51;;;;;;;5.32;3.95;;;6.00;75.90;;;;;;5033402;28;20041;-78
2021/05/07 02:57:16;;;;;;;5.20;4.07;;;5.90;75.80;;;;;;5016720;28;20090;-78
2021/05/07 02:59:42;;;;;;;5.57;3.90;;;6.00;75.90;;;;;;5016536;28;20053;-78
2021/05/07 03:02:08;;;;;;;5.63;4.70;;;6.00;76.00;;;;;;5033603;28;20121;-78
2021/05/07 03:04:34;;;;;;;5.72;4.38;;;6.00;76.00;;;;;;5017043;28;20052;-83
2021/05/07 03:07:00;;;;;;;4.82;3.90;;;6.00;76.10;;;;;;5034349;28;20099;-78
2021/05/07 03:09:26;;;;;;;4.90;4.05;;;5.90;76.00;;;;;;5034135;28;20429;-77
2021/05/07 03:11:54;;;;;;;6.25;4.20;;;5.90;76.10;;;;;;5032652;28;20482;-77
2021/05/07 03:14:20;;;;;;;5.63;4.25;;;5.90;76.10;;;;;;5033608;28;20045;-78
2021/05/07 03:16:45;;;;;;;6.00;4.45;;;5.90;76.10;;;;;;5031958;28;20043;-78
2021/05/07 03:19:11;;;;;;;5.93;4.40;;;5.90;76.10;;;;;;5032357;28;20385;-78
2021/05/07 03:21:37;;;;;;;6.90;4.78;;;5.90;76.30;;;;;;5015641;28;20427;-82
2021/05/07 03:24:05;;;;;;;4.95;4.03;;;5.90;76.30;;;;;;5033504;28;20049;-78
2021/05/07 03:26:31;;;;;;;6.13;4.35;;;5.90;76.30;;;;;;5015859;28;20049;-79
2021/05/07 03:28:57;;;;;;;5.38;4.82;;;5.90;76.10;;;;;;5047976;28;20064;-79
2021/05/07 03:31:22;;;;;;;7.32;4.70;;;5.80;76.10;;;;;;5015409;28;20053;-79
2021/05/07 03:33:48;;;;;;;5.93;4.18;;;5.80;76.20;;;;;;5031694;28;20128;-77
2021/05/07 03:36:14;;;;;;;5.93;4.32;;;5.80;76.20;;;;;;5016156;28;20050;-78
2021/05/07 03:38:40;;;;;;;6.55;4.68;;;5.80;76.10;;;;;;5032100;28;20117;-85
2021/05/07 03:41:06;;;;;;;7.85;5.07;;;5.70;76.10;;;;;;5032058;28;20084;-77
2021/05/07 03:43:32;;;;;;;5.10;4.22;;;5.70;76.10;;;;;;5015592;28;20045;-78
2021/05/07 03:45:58;;;;;;;6.18;4.50;;;5.70;76.00;;;;;;5033153;28;20080;-78
2021/05/07 03:48:24;;;;;;;7.70;4.63;;;5.70;76.00;;;;;;4999100;28;20474;-77
2021/05/07 03:50:53;;;;;;;4.82;4.32;;;5.60;76.00;;;;;;4999138;28;20045;-78
2021/05/07 03:53:19;;;;;;;5.53;4.60;;;5.70;76.10;;;;;;5033562;28;20038;-78
2021/05/07 03:55:44;;;;;;;6.32;4.55;;;5.60;76.10;;;;;;5033156;28;20045;-83
2021/05/07 03:58:11;;;;;;;5.32;4.18;;;5.60;76.20;;;;;;5017113;28;20095;-78
2021/05/07 04:00:41;;;;;;;6.47;4.72;;;5.50;76.20;;;;;;5017875;28;20121;-78
2021/05/07 04:03:07;;;;;;;6.65;4.88;;;5.50;76.30;;;;;;5033709;28;20073;-78
2021/05/07 04:05:33;;;;;;;5.60;4.72;;;5.50;76.30;;;;;;5016969;28;20115;-78
2021/05/07 04:08:15;;;;;;;6.40;4.68;;;5.50;76.30;;;;;;5015783;28;20482;-78
2021/05/07 04:10:43;;;;;;;5.50;5.00;;;5.40;76.30;;;;;;5019026;28;20045;-79
2021/05/07 04:15:54;;;;;;;6.88;4.88;;;5.50;76.60;;;;;;5019274;28;20046;-77
2021/05/07 04:18:20;;;;;;;7.25;4.57;;;5.50;76.70;;;;;;5033324;28;20145;-78
2021/05/07 04:20:45;;;;;;;6.78;4.88;;;5.50;76.60;;;;;;5032711;28;20403;-87
2021/05/07 04:23:11;;;;;;;6.78;5.10;;;5.50;76.50;;;;;;5019750;28;20042;-76
2021/05/07 04:25:37;;;;;;;5.45;4.78;;;5.50;76.60;;;;;;5020610;28;20049;-77
2021/05/07 04:28:03;;;;;;;5.45;4.70;;;5.50;76.60;;;;;;5020180;28;20128;-79
2021/05/07 04:30:31;;;;;;;6.88;4.78;;;5.50;76.70;;;;;;5037795;28;20516;-79
2021/05/07 04:32:56;;;;;;;6.07;4.95;;;5.50;76.60;;;;;;5036260;28;20048;-77
2021/05/07 04:35:25;;;;;;;5.70;5.10;;;5.50;76.70;;;;;;5037503;28;20424;-79
2021/05/07 04:37:52;;;;;;;6.95;4.90;;;5.50;76.80;;;;;;5020744;28;20057;-85
2021/05/07 04:40:18;;;;;;;6.72;5.30;;;5.50;76.80;;;;;;5021680;28;20130;-79
2021/05/07 04:42:43;;;;;;;8.50;5.30;;;5.50;76.90;;;;;;5022188;28;20045;-78
2021/05/07 04:45:10;;;;;;;6.88;5.55;;;5.50;76.90;;;;;;5022039;28;20041;-78
2021/05/07 04:47:36;;;;;;;5.50;4.75;;;5.50;76.90;;;;;;5022496;28;20049;-78
2021/05/07 04:50:03;;;;;;;8.75;5.57;;;5.50;77.10;;;;;;5021644;28;20350;-79
2021/05/07 04:52:29;;;;;;;6.22;5.32;;;5.50;76.80;;;;;;5021795;28;20045;-77
2021/05/07 04:54:55;;;;;;;5.30;4.22;;;5.40;76.70;;;;;;5038470;28;20076;-77
2021/05/07 04:57:21;;;;;;;5.90;4.82;;;5.50;76.80;;;;;;5037980;28;20076;-79
2021/05/07 04:59:46;;;;;;;7.20;5.13;;;5.50;77.00;;;;;;5005252;28;20046;-80
2021/05/07 05:02:12;;;;;;;7.65;5.13;;;5.50;76.90;;;;;;5047925;28;20046;-79
2021/05/07 05:04:38;;;;;;;7.00;5.45;;;5.50;77.00;;;;;;5042601;28;20033;-81
2021/05/07 05:07:07;;;;;;;6.22;4.70;;;5.50;76.90;;;;;;5055469;28;20044;-79
2021/05/07 05:09:34;;;;;;;6.85;5.35;;;5.50;76.80;;;;;;5058138;28;20041;-77
2021/05/07 05:12:00;;;;;;;7.97;5.43;;;5.50;77.00;;;;;;5056181;28;20037;-78
2021/05/07 05:14:26;;;;;;;6.90;5.40;;;5.60;77.10;;;;;;5055129;28;20045;-77
2021/05/07 05:16:51;;;;;;;5.80;5.10;;;5.60;77.40;;;;;;5055845;28;20057;-78
2021/05/07 05:19:17;;;;;;;6.32;5.20;;;5.60;77.60;;;;;;5037881;28;20136;-77
2021/05/07 05:21:43;;;;;;;8.05;5.40;;;5.70;77.70;;;;;;5058781;28;20151;-78
2021/05/07 05:24:09;;;;;;;6.10;4.78;;;5.70;77.60;;;;;;5057339;28;20049;-79
2021/05/07 05:26:35;;;;;;;6.82;5.07;;;5.80;77.60;;;;;;5058956;28;20102;-80
2021/05/07 05:29:01;;;;;;;10.75;5.28;;;5.80;77.60;;;;;;5058022;28;20069;-78
2021/05/07 05:31:27;;;;;;;5.93;4.72;;;5.80;77.60;;;;;;5058243;28;20057;-78
2021/05/07 05:33:53;;;;;;;5.32;4.30;;;5.80;77.60;;;;;;5058284;28;20127;-76
2021/05/07 05:36:19;;;;;;;4.43;3.67;;;5.80;77.50;;;;;;5052675;28;20136;-79
2021/05/07 05:38:45;;;;;;;4.40;3.28;;;5.90;77.50;;;;;;5058765;28;20095;-79
2021/05/07 05:41:11;;;;;;;5.00;2.97;;;5.90;77.40;;;;;;5058783;28;20041;-78
2021/05/07 05:43:36;;;;;;;6.55;3.22;;;5.90;77.30;;;;;;5057678;28;20052;-78
2021/05/07 05:46:02;;;;;;;5.32;2.95;;;5.90;77.40;;;;;;5057464;28;20048;-74
2021/05/07 05:48:28;;;;;;;7.00;2.90;;;5.90;77.50;;;;;;5039671;28;20563;-73
2021/05/07 05:50:54;;;;;;;4.60;2.85;;;6.00;77.80;;;;;;5056742;28;20048;-83
2021/05/07 05:53:20;;;;;;;2.60;2.13;;;6.00;78.10;;;;;;5058011;28;20045;-76
2021/05/07 05:55:46;;;;;;;4.25;2.45;;;6.00;78.00;;;;;;5057845;28;20045;-74
2021/05/07 05:58:12;;;;;;;3.95;2.78;;;6.00;77.80;;;;;;5057536;28;20378;-76
2021/05/07 06:00:38;;;;;;;3.88;2.42;;;6.40;80.00;;;;;;5050914;28;20056;-78
2021/05/07 06:03:04;;;;;;;3.72;2.50;;;6.50;78.30;;;;;;5027651;28;20059;-80
2021/05/07 06:05:30;;;;;;;4.88;2.50;;;6.50;77.70;;;;;;5052175;28;20045;-80
2021/05/07 06:07:56;;;;;;;3.83;2.38;;;6.50;77.50;;;;;;4995306;28;20456;-79
2021/05/07 06:10:22;;;;;;;4.28;2.58;;;6.50;78.20;;;;;;5052024;28;20049;-82
2021/05/07 06:12:48;;;;;;;2.58;2.30;;;6.40;78.20;;;;;;5043933;28;20129;-77
2021/05/07 06:15:15;;;;;;;3.42;2.53;;;6.40;77.50;;;;;;5050936;28;20110;-84
2021/05/07 06:17:41;;;;;;;3.10;2.10;;;6.40;77.50;;;;;;5040961;28;20477;-79
2021/05/07 06:20:08;;;;;;;3.75;2.25;;;6.40;77.60;;;;;;5058320;28;20210;-78
2021/05/07 06:22:34;;;;;;;4.30;2.45;;;6.40;77.70;;;;;;5022520;28;20049;-78
2021/05/07 06:25:00;;;;;;;3.47;2.40;;;6.40;77.70;;;;;;5008154;28;20053;-78
2021/05/07 06:27:26;;;;;;;3.70;2.08;;;6.40;77.70;;;;;;5056707;28;20352;-79
2021/05/07 06:29:52;;;;;;;3.22;2.38;;;6.40;77.70;;;;;;5058664;28;20061;-77
2021/05/07 06:32:18;;;;;;;3.50;1.80;;;6.50;77.80;;;;;;5057598;28;20056;-78
2021/05/07 06:34:43;;;;;;;3.13;2.17;;;6.50;77.80;;;;;;5041636;28;20102;-79
2021/05/07 06:37:09;;;;;;;6.15;2.67;;;6.60;77.70;;;;;;5040393;28;20049;-80
2021/05/07 06:39:35;;;;;;;3.78;2.38;;;6.50;77.60;;;;;;5035510;28;20041;-77
2021/05/07 06:42:01;;;;;;;3.05;2.33;;;6.60;77.70;;;;;;5038033;28;20383;-79
2021/05/07 06:44:28;;;;;;;3.72;2.28;;;6.50;77.60;;;;;;5024039;28;20036;-78
2021/05/07 06:46:54;;;;;;;4.25;2.47;;;6.60;77.80;;;;;;5057880;28;20482;-77
2021/05/07 06:49:21;;;;;;;3.05;2.28;;;6.60;77.70;;;;;;5057775;28;20075;-79
2021/05/07 06:51:46;;;;;;;3.50;2.35;;;6.60;77.70;;;;;;5040547;28;20053;-78
2021/05/07 06:54:12;;;;;;;3.10;2.22;;;6.60;77.70;;;;;;5058907;28;20477;-78
2021/05/07 06:56:38;;;;;;;4.38;2.35;;;6.70;77.80;;;;;;5041454;28;20049;-78
2021/05/07 06:59:06;;;;;;;3.13;2.00;;;6.70;77.80;;;;;;5041611;28;20067;-76
2021/05/07 07:01:33;;;;;;;3.42;1.98;;;6.70;77.80;;;;;;5042105;28;20474;-78
2021/05/07 07:03:59;;;;;;;4.68;2.03;;;6.80;77.80;;;;;;5058917;28;20056;-77
2021/05/07 07:06:25;;;;;;;4.90;1.92;;;6.80;77.80;;;;;;5058783;28;20033;-81
2021/05/07 07:08:51;;;;;;;3.22;2.15;;;6.80;77.60;;;;;;5058880;28;20040;-80
2021/05/07 07:11:18;;;;;;;2.40;2.05;;;6.90;77.60;;;;;;5057481;28;20123;-76
2021/05/07 07:13:43;;;;;;;3.25;1.95;;;6.90;77.50;;;;;;5040674;28;20142;-78
2021/05/07 07:16:09;;;;;;;3.15;2.20;;;6.90;77.50;;;;;;5057403;28;20076;-83
2021/05/07 07:18:35;;;;;;;3.05;2.35;;;6.90;77.60;;;;;;5041055;28;20053;-78
2021/05/07 07:21:01;;;;;;;3.63;2.08;;;6.90;77.60;;;;;;5058414;28;20048;-78
2021/05/07 07:23:27;;;;;;;3.10;2.10;;;7.00;77.60;;;;;;5024935;28;20580;-77
2021/05/07 07:25:55;;;;;;;3.80;2.33;;;6.90;77.50;;;;;;5059614;28;20067;-77
2021/05/07 07:28:21;;;;;;;3.88;2.42;;;7.00;77.60;;;;;;5057920;28;20108;-78
2021/05/07 07:30:50;;;;;;;4.22;3.00;;;6.90;77.50;;;;;;5057712;28;20084;-78
2021/05/07 07:33:15;;;;;;;4.97;2.88;;;7.00;77.50;;;;;;5024861;28;20045;-82
2021/05/07 07:35:41;;;;;;;3.80;2.72;;;7.00;77.60;;;;;;5041266;28;20045;-77
2021/05/07 07:38:07;;;;;;;4.90;2.90;;;7.00;77.50;;;;;;5059765;28;20059;-77
2021/05/07 07:40:33;;;;;;;4.05;2.63;;;7.10;77.40;;;;;;5041151;28;20223;-77
2021/05/07 07:42:58;;;;;;;6.72;2.83;;;7.10;77.40;;;;;;5074768;28;20048;-77
2021/05/07 07:45:24;;;;;;;5.13;3.10;;;7.10;77.30;;;;;;5041132;28;20045;-76
2021/05/07 07:48:16;;;;;;;3.35;2.90;;;7.10;77.10;;;;;;5025204;28;20047;-77
2021/05/07 07:50:43;;;;;;;5.57;3.30;;;7.10;76.70;;;;;;5042335;28;20051;-79
2021/05/07 07:53:08;;;;;;;4.35;3.00;;;7.10;77.10;;;;;;5057867;28;20052;-78
2021/05/07 07:55:34;;;;;;;4.10;3.10;;;7.10;77.00;;;;;;5057155;28;20057;-78
2021/05/07 07:58:00;;;;;;;3.97;3.17;;;7.20;77.00;;;;;;5028667;28;20048;-77
2021/05/07 08:00:29;;;;;;;4.35;2.97;;;7.20;77.20;;;;;;5045096;28;20453;-79
2021/05/07 08:02:54;;;;;;;6.15;4.07;;;7.30;77.20;;;;;;5029413;28;20045;-79
2021/05/07 08:05:20;;;;;;;4.47;2.92;;;7.30;77.00;;;;;;5061680;28;20049;-78
2021/05/07 08:07:46;;;;;;;6.88;3.22;;;7.40;76.60;;;;;;5045623;28;20052;-78
2021/05/07 08:10:14;;;;;;;5.50;3.55;;;7.40;76.40;;;;;;5063000;28;20041;-78
2021/05/07 08:12:44;;;;;;;4.43;2.78;;;7.50;76.50;;;;;;5045034;28;20045;-77
2021/05/07 08:15:10;;;;;;;5.90;2.80;;;7.50;76.50;;;;;;5029175;28;20102;-77
2021/05/07 08:17:36;;;;;;;4.63;2.47;;;7.60;76.50;;;;;;5028294;28;20060;-77
2021/05/07 08:20:06;;;;;;;5.78;2.80;;;7.60;76.20;;;;;;5061029;28;20048;-77
2021/05/07 08:22:32;;;;;;;4.60;3.30;;;7.70;76.10;;;;;;5028298;28;20041;-78
2021/05/07 08:24:57;;;;;;;4.47;2.72;;;7.80;76.10;;;;;;5044421;28;20413;-76
2021/05/07 08:27:24;;;;;;;5.47;2.17;;;7.90;75.80;;;;;;5062090;28;20052;-81
2021/05/07 08:29:50;;;;;;;3.28;1.90;;;8.00;75.10;;;;;;5060933;28;20071;-77
2021/05/07 08:32:18;;;;;;;4.82;2.15;;;8.00;74.50;;;;;;5044823;28;20131;-78
2021/05/07 08:34:45;;;;;;;3.45;2.08;;;8.00;73.90;;;;;;5060185;28;20059;-76
2021/05/07 08:37:11;;;;;;;4.25;2.10;;;8.10;73.50;;;;;;5044292;28;20549;-79
2021/05/07 08:39:37;;;;;;;3.22;2.05;;;8.10;73.30;;;;;;5026504;28;20131;-76
2021/05/07 08:42:06;;;;;;;3.50;2.05;;;8.10;73.10;;;;;;5026612;28;20489;-78
2021/05/07 08:44:33;;;;;;;3.95;2.33;;;8.10;72.90;;;;;;5043075;28;20051;-77
2021/05/07 08:47:01;;;;;;;3.80;1.83;;;8.20;72.90;;;;;;5044552;28;20064;-78
2021/05/07 08:49:27;;;;;;;4.93;2.05;;;8.20;72.70;;;;;;5060915;28;20049;-78
2021/05/07 08:51:53;;;;;;;4.40;1.98;;;8.20;72.10;;;;;;5060882;28;20052;-76
2021/05/07 08:54:19;;;;;;;3.15;1.80;;;8.20;71.90;;;;;;5043797;28;20445;-77
2021/05/07 08:56:45;;;;;;;3.45;1.80;;;8.20;71.60;;;;;;5043232;28;20060;-77
2021/05/07 08:59:11;;;;;;;6.65;2.45;;;8.20;71.50;;;;;;5026532;28;20049;-78
2021/05/07 09:01:43;;;;;;;6.20;2.42;;;8.30;71.50;;;;;;5061830;28;20103;-78
2021/05/07 09:04:10;;;;;;;4.22;2.30;;;8.40;71.30;;;;;;5027444;28;20045;-76
2021/05/07 09:06:50;;;;;;;6.72;2.75;;;8.50;71.10;;;;;;5060218;28;20068;-78
2021/05/07 09:09:27;;;;;;;5.22;3.05;;;8.70;70.90;;;;;;5045395;28;20402;-79
2021/05/07 09:11:55;;;;;;;4.68;2.30;;;8.90;71.00;;;;;;5060738;28;20474;-78
2021/05/07 09:14:22;;;;;;;4.38;2.28;;;9.00;70.60;;;;;;5027901;28;20051;-76
2021/05/07 09:16:57;;;;;;;2.80;1.67;;;9.10;69.90;;;;;;5043597;28;20124;-77
2021/05/07 09:19:27;;;;;;;3.28;1.48;;;9.10;68.20;;;;;;5060642;28;20068;-77
2021/05/07 09:21:56;;;;;;;3.58;1.63;;;9.20;67.90;;;;;;5060390;28;20041;-77
2021/05/07 09:24:35;;;;;;;4.20;1.70;;;9.20;67.60;;;;;;5044089;28;20095;-77
2021/05/07 09:27:01;;;;;;;3.63;1.63;;;9.30;67.20;;;;;;5043847;28;20080;-79
2021/05/07 09:29:28;;;;;;;2.75;1.67;;;9.30;67.70;;;;;;5043879;28;20044;-77
2021/05/07 09:31:54;;;;;;;4.60;2.00;;;9.50;67.70;;;;;;5043227;28;20132;-78
2021/05/07 09:34:21;;;;;;;5.55;1.83;;;9.50;67.30;;;;;;5043627;28;20044;-77
2021/05/07 09:36:47;;;;;;;2.40;1.40;;;9.70;67.10;;;;;;5042928;28;20052;-78
2021/05/07 09:39:18;;;;;;;2.33;1.80;;;9.80;67.00;;;;;;5060182;28;20056;-77
2021/05/07 09:41:45;;;;;;;2.65;1.48;;;9.90;66.50;;;;;;5042900;28;20627;-79
2021/05/07 09:44:15;;;;;;;2.85;1.60;;;9.90;66.70;;;;;;5026734;28;20068;-76
2021/05/07 09:46:41;;;;;;;3.35;1.88;;;10.00;66.30;;;;;;5060891;28;20052;-79
2021/05/07 09:49:07;;;;;;;5.43;2.13;;;10.10;66.30;;;;;;5043392;28;20049;-76
2021/05/07 09:51:42;;;;;;;2.80;2.03;;;10.20;66.10;;;;;;5042530;28;20045;-86
2021/05/07 09:54:09;;;;;;;2.85;1.58;;;10.30;65.10;;;;;;5059415;28;20045;-77
2021/05/07 09:56:35;;;;;;;2.63;1.15;;;10.40;65.30;;;;;;5059384;28;20037;-84
2021/05/07 09:59:03;;;;;;;5.68;1.63;;;10.40;64.60;;;;;;5059406;28;20048;-77
2021/05/07 10:01:31;;;;;;;3.33;1.58;;;10.50;64.80;;;;;;5043195;28;20465;-78
2021/05/07 10:03:58;;;;;;;2.65;1.50;;;10.60;64.60;;;;;;5058812;28;20056;-76
2021/05/07 10:06:29;;;;;;;4.32;1.40;;;10.70;64.40;;;;;;5059155;28;20053;-77
2021/05/07 10:08:55;;;;;;;4.35;1.73;;;10.90;64.00;;;;;;5058963;28;20040;-77
2021/05/07 10:11:22;;;;;;;3.05;1.27;;;11.10;63.70;;;;;;5058883;28;20390;-76
2021/05/07 10:13:48;;;;;;;2.28;1.20;;;11.20;62.80;;;;;;5042682;28;20071;-82
2021/05/07 10:16:14;;;;;;;2.80;1.48;;;11.30;62.40;;;;;;5026237;28;20128;-79
2021/05/07 10:18:41;;;;;;;3.97;1.60;;;11.40;61.90;;;;;;5058837;28;20446;-78
2021/05/07 10:21:11;;;;;;;8.10;2.20;;;11.50;62.30;;;;;;5058641;28;20053;-78
2021/05/07 10:23:49;;;;;;;2.40;1.80;;;11.60;61.60;;;;;;5037000;28;20044;-83
2021/05/07 10:26:14;;;;;;;3.42;1.40;;;11.70;60.90;;;;;;5021180;28;20052;-80
2021/05/07 10:28:44;;;;;;;2.42;1.42;;;11.80;61.30;;;;;;5052948;28;20045;-81
2021/05/07 10:31:10;;;;;;;3.70;1.58;;;12.00;60.90;;;;;;5058100;28;20049;-78
2021/05/07 10:33:37;;;;;;;2.15;1.20;;;12.20;60.70;;;;;;5058813;28;20040;-85
2021/05/07 10:36:03;;;;;;;4.40;1.48;;;12.40;60.60;;;;;;5058826;28;20040;-79
2021/05/07 10:38:29;;;;;;;3.03;1.50;;;12.60;59.80;;;;;;5025591;28;20481;-77
2021/05/07 10:41:08;;;;;;;4.15;1.70;;;12.60;59.50;;;;;;5025322;28;20063;-79
2021/05/07 10:43:42;;;;;;;4.18;1.80;;;12.80;58.80;;;;;;5009461;28;20077;-75
2021/05/07 10:46:22;;;;;;;3.03;1.73;;;12.90;58.60;;;;;;5042408;28;20124;-79
2021/05/07 10:48:59;;;;;;;2.78;1.70;;;13.00;58.00;;;;;;5041680;28;20037;-77
2021/05/07 10:51:27;;;;;;;4.82;1.75;;;13.10;58.20;;;;;;5042202;28;20072;-80
2021/05/07 10:54:04;;;;;;;3.72;1.50;;;13.10;58.80;;;;;;5042115;28;20490;-79
2021/05/07 10:56:36;;;;;;;3.33;1.40;;;13.30;58.60;;;;;;5025098;28;20048;-81
2021/05/07 10:59:12;;;;;;;1.55;1.10;;;13.40;58.70;;;;;;5038359;28;20154;-78
2021/05/07 11:01:38;;;;;;;6.13;1.23;;;13.40;56.50;;;;;;5045333;28;20068;-77
2021/05/07 11:04:05;;;;;;;3.10;1.05;;;13.40;57.30;;;;;;5038540;28;20041;-76
2021/05/07 11:06:32;;;;;;;4.20;1.50;;;13.50;57.50;;;;;;5030743;28;20083;-76
2021/05/07 11:09:19;;;;;;;3.05;1.20;;;13.70;56.90;;;;;;5027765;28;20635;-76
2021/05/07 11:11:52;;;;;;;3.22;1.15;;;13.70;54.40;;;;;;5044279;28;20048;-84
2021/05/07 11:14:25;;;;;;;2.67;1.02;;;13.60;53.70;;;;;;5055853;28;20055;-80
2021/05/07 11:16:52;;;;;;;1.75;1.00;;;13.50;54.50;;;;;;5058207;28;20116;-82
2021/05/07 11:19:27;;;;;;;3.03;1.48;;;13.30;54.50;;;;;;5042451;28;20079;-78
2021/05/07 11:21:55;;;;;;;2.95;0.95;;;13.40;54.20;;;;;;5058953;28;20453;-77
2021/05/07 11:24:27;;;;;;;2.03;1.30;;;13.50;54.20;;;;;;5042029;28;20056;-81
2021/05/07 11:26:53;;;;;;;2.20;1.52;;;13.70;54.30;;;;;;5042366;28;20045;-79
2021/05/07 11:29:37;;;;;;;3.00;1.25;;;13.70;54.40;;;;;;5039863;28;20508;-83
2021/05/07 11:32:09;;;;;;;3.05;1.20;;;13.90;53.40;;;;;;5022946;28;20057;-80
2021/05/07 11:34:34;;;;;;;1.73;1.17;;;14.10;54.00;;;;;;5011972;28;20121;-82
2021/05/07 11:37:00;;;;;;;1.67;1.20;;;14.30;53.90;;;;;;5057459;28;20028;-82
2021/05/07 11:39:26;;;;;;;2.42;1.10;;;14.20;53.20;;;;;;5027529;28;20108;-82
2021/05/07 11:41:53;;;;;;;3.97;1.30;;;14.40;53.10;;;;;;5044074;28;20045;-82
2021/05/07 11:44:19;;;;;;;2.92;1.50;;;14.60;53.20;;;;;;5044818;28;20037;-78
2021/05/07 11:47:05;;;;;;;5.05;1.30;;;14.50;52.20;;;;;;5060279;28;20086;-81
2021/05/07 11:49:44;;;;;;;2.15;0.90;;;14.50;51.10;;;;;;5036458;28;20068;-82
2021/05/07 11:52:09;;;;;;;2.35;1.20;;;14.40;52.00;;;;;;5053388;28;20041;-83
2021/05/07 11:54:54;;;;;;;0.95;0.90;;;14.30;51.90;;;;;;5034864;28;20147;-81
2021/05/07 11:57:21;;;;;;;2.05;1.20;;;14.10;48.20;;;;;;5048338;28;20045;-81
2021/05/07 11:59:47;;;;;;;3.13;1.30;;;13.90;51.30;;;;;;5032731;28;20052;-80
2021/05/07 12:02:21;;;;;;;2.88;1.45;;;13.70;51.30;;;;;;5022807;28;20052;-80
2021/05/07 12:04:47;;;;;;;2.63;1.40;;;13.70;51.40;;;;;;5041648;28;20099;-79
2021/05/07 12:07:23;;;;;;;1.90;1.15;;;13.60;52.70;;;;;;5016371;28;20049;-82
2021/05/07 12:09:49;;;;;;;2.08;1.35;;;13.50;51.30;;;;;;5035866;28;20047;-80
2021/05/07 12:12:14;;;;;;;2.00;0.88;;;13.60;52.30;;;;;;5011268;28;20133;-86
2021/05/07 12:14:50;;;;;;;2.03;1.15;;;13.80;51.90;;;;;;5033537;28;20051;-91
2021/05/07 12:17:21;;;;;;;3.15;1.20;;;14.00;52.00;;;;;;5040079;28;20048;-85
2021/05/07 12:20:05;;;;;;;5.10;1.75;;;14.30;51.80;;;;;;5027472;28;20130;-83
2021/05/07 12:22:34;;;;;;;3.40;1.38;;;14.70;49.20;;;;;;5049009;28;20088;-83
2021/05/07 12:25:17;;;;;;;2.25;1.20;;;15.00;50.40;;;;;;5028770;28;20041;-83
2021/05/07 12:27:43;;;;;;;3.45;1.30;;;15.00;49.20;;;;;;5020098;28;20037;-81
2021/05/07 12:30:24;;;;;;;5.28;1.75;;;15.00;50.10;;;;;;5008864;28;20081;-81
2021/05/07 12:32:55;;;;;;;3.63;1.60;;;14.90;49.00;;;;;;5057967;28;20053;-81
2021/05/07 12:35:21;;;;;;;2.80;1.77;;;14.80;49.60;;;;;;5009834;28;20465;-82
2021/05/07 12:37:47;;;;;;;3.40;1.83;;;14.70;50.10;;;;;;5041854;28;20072;-84
2021/05/07 12:40:15;;;;;;;4.05;1.50;;;14.60;50.50;;;;;;5025410;28;20056;-83
2021/05/07 12:42:41;;;;;;;2.70;1.67;;;14.50;50.60;;;;;;5009771;28;20060;-81
2021/05/07 12:45:09;;;;;;;3.47;1.60;;;14.50;51.00;;;;;;5009278;28;20045;-81
2021/05/07 12:47:35;;;;;;;2.78;1.42;;;14.40;50.70;;;;;;5009082;28;20073;-79
2021/05/07 12:50:01;;;;;;;2.97;1.45;;;14.40;50.50;;;;;;5041472;28;20107;-84
2021/05/07 12:52:27;;;;;;;2.17;1.42;;;14.50;50.00;;;;;;5041450;28;20091;-82
2021/05/07 12:54:53;;;;;;;3.72;1.85;;;14.50;49.60;;;;;;5037020;28;20481;-81
2021/05/07 12:57:18;;;;;;;2.50;1.75;;;14.40;49.70;;;;;;5041311;28;20443;-81
2021/05/07 12:59:44;;;;;;;3.45;1.50;;;14.30;50.10;;;;;;5025392;28;20090;-84